Bromont, Canada
Current Conditions -  °F | °C
As of 1:15 PM on Thursday 18 Dec 2014 (Local Time) from KFSO Reporting Station
Light Snow Light Snow  
Wind Chill: 31°   Ceiling: 500
Heat Index: 31°   Visibility: 1.5mi
Dew Point: 30°   Wind: 0mph
Humidity: 96%   Direction: NA
Pressure: 29.85"   Gusts: NA
Location:  45.32°N, 72.67°W
Report Text: KFSO 181815Z AUTO 00000KT 1 1/2SM -SN OVC005 00/M01 A2985 RMK AO2 T10051010
Loading
Personal Weather Stations






























Interactive Weather Map New forecast layout! Learn more

10-Day Weather Forecast

Advertisements
Track Severe Weather on mobile